createdAt,value
2023-03-18T00:01:56.985Z,4.07
2023-03-18T00:04:44.636Z,4.23
2023-03-18T00:07:32.542Z,3.70
2023-03-18T00:10:20.570Z,4.00
2023-03-18T00:13:08.279Z,4.03
2023-03-18T00:15:57.541Z,4.07
2023-03-18T00:18:45.340Z,4.03
2023-03-18T00:21:32.929Z,3.80
2023-03-18T00:24:20.701Z,3.50
2023-03-18T00:27:09.348Z,3.80
2023-03-18T00:29:57.537Z,4.13
2023-03-18T00:32:46.344Z,3.80
2023-03-18T00:35:36.376Z,3.53
2023-03-18T00:38:24.600Z,3.50
2023-03-18T00:41:15.734Z,3.67
2023-03-18T00:44:03.667Z,3.47
2023-03-18T00:46:51.035Z,3.67
2023-03-18T00:49:40.003Z,3.60
2023-03-18T00:52:27.492Z,4.00
2023-03-18T00:55:15.689Z,4.10
2023-03-18T00:58:03.163Z,3.90
2023-03-18T01:00:50.980Z,3.73
2023-03-18T01:03:39.350Z,4.27
2023-03-18T01:06:29.854Z,3.57
2023-03-18T01:09:17.452Z,4.03
2023-03-18T01:12:05.394Z,3.33
2023-03-18T01:14:53.744Z,3.37
2023-03-18T01:17:41.100Z,3.83
2023-03-18T01:20:29.253Z,3.40
2023-03-18T01:23:19.950Z,3.47
2023-03-18T01:26:08.027Z,3.40
2023-03-18T01:28:56.264Z,3.50
2023-03-18T01:31:43.880Z,4.00
2023-03-18T01:34:35.884Z,3.43
2023-03-18T01:37:26.133Z,3.47
2023-03-18T01:40:28.400Z,3.37
2023-03-18T01:43:20.695Z,4.00
2023-03-18T01:46:32.367Z,3.20
2023-03-18T01:49:24.267Z,3.47
2023-03-18T01:52:16.180Z,3.30
2023-03-18T01:55:08.101Z,2.63
2023-03-18T01:57:57.339Z,3.30
2023-03-18T02:00:48.181Z,3.30
2023-03-18T02:03:36.686Z,3.23
2023-03-18T02:06:24.664Z,4.07
2023-03-18T02:09:20.160Z,3.70
2023-03-18T02:12:09.460Z,4.20
2023-03-18T02:14:59.077Z,3.90
2023-03-18T02:17:50.703Z,3.50
2023-03-18T02:20:59.848Z,3.50
2023-03-18T02:23:55.202Z,3.40
2023-03-18T02:26:51.754Z,3.40
2023-03-18T02:29:48.311Z,3.40
2023-03-18T02:32:41.226Z,3.20
2023-03-18T02:35:30.846Z,3.50
2023-03-18T02:38:21.366Z,3.53
2023-03-18T02:41:15.331Z,3.50
2023-03-18T02:44:03.942Z,2.80
2023-03-18T02:47:02.844Z,3.57
2023-03-18T02:49:50.644Z,3.63
2023-03-18T02:52:38.782Z,3.83
2023-03-18T02:55:27.045Z,3.57
2023-03-18T02:58:14.345Z,3.60
2023-03-18T03:01:02.542Z,2.97
2023-03-18T03:03:51.828Z,3.73
2023-03-18T03:06:39.710Z,3.40
2023-03-18T03:09:27.459Z,4.27
2023-03-18T03:12:15.335Z,3.50
2023-03-18T03:15:11.299Z,3.50
2023-03-18T03:18:04.817Z,3.90
2023-03-18T03:20:54.046Z,3.80
2023-03-18T03:23:42.696Z,3.30
2023-03-18T03:26:29.919Z,3.93
2023-03-18T03:29:17.282Z,3.70
2023-03-18T03:32:05.127Z,3.63
2023-03-18T03:34:52.726Z,3.70
2023-03-18T03:37:42.154Z,3.50
2023-03-18T03:40:29.712Z,3.73
2023-03-18T03:43:17.064Z,3.67
2023-03-18T03:46:04.651Z,3.90
2023-03-18T03:48:52.012Z,4.07
2023-03-18T03:51:39.497Z,3.80
2023-03-18T03:54:28.327Z,4.17
2023-03-18T03:57:15.665Z,3.87
2023-03-18T04:00:03.668Z,3.80
2023-03-18T04:03:06.441Z,4.13
2023-03-18T04:05:56.348Z,3.87
2023-03-18T04:08:46.793Z,3.97
2023-03-18T04:11:35.588Z,3.53
2023-03-18T04:14:22.822Z,3.83
2023-03-18T04:17:11.429Z,3.77
2023-03-18T04:19:58.711Z,3.53
2023-03-18T04:22:50.212Z,3.73
2023-03-18T04:25:40.332Z,3.87
2023-03-18T04:28:29.160Z,3.60
2023-03-18T04:31:16.613Z,3.83
2023-03-18T04:34:04.097Z,4.43
2023-03-18T04:36:51.417Z,3.90
2023-03-18T04:39:39.401Z,4.33
2023-03-18T04:42:29.485Z,3.90
2023-03-18T04:45:19.921Z,3.70
2023-03-18T04:48:07.970Z,4.10
2023-03-18T04:50:59.797Z,3.73
2023-03-18T04:53:49.802Z,3.43
2023-03-18T04:56:37.365Z,3.93
2023-03-18T04:59:25.207Z,3.93
2023-03-18T05:02:15.555Z,3.43
2023-03-18T05:05:02.922Z,3.90
2023-03-18T05:07:51.650Z,3.97
2023-03-18T05:10:41.328Z,3.70
2023-03-18T05:13:29.294Z,3.67
2023-03-18T05:16:18.332Z,3.47
2023-03-18T05:19:09.855Z,3.77
2023-03-18T05:22:02.141Z,3.53
2023-03-18T05:24:50.629Z,4.00
2023-03-18T05:27:39.828Z,3.97
2023-03-18T05:30:37.083Z,3.37
2023-03-18T05:33:24.578Z,3.67
2023-03-18T05:36:15.945Z,3.63
2023-03-18T05:39:21.615Z,3.63
2023-03-18T05:42:09.618Z,3.40
2023-03-18T05:44:57.994Z,3.87
2023-03-18T05:47:46.681Z,4.03
2023-03-18T05:50:36.458Z,3.60
2023-03-18T05:53:28.952Z,3.70
2023-03-18T05:56:26.267Z,3.50
2023-03-18T05:59:18.025Z,3.53
2023-03-18T06:02:07.867Z,3.90
2023-03-18T06:04:55.369Z,3.97
2023-03-18T06:07:43.510Z,3.30
2023-03-18T06:10:32.236Z,3.53
2023-03-18T06:13:19.801Z,3.90
2023-03-18T06:16:08.622Z,4.03
2023-03-18T06:18:56.453Z,3.93
2023-03-18T06:21:43.932Z,4.30
2023-03-18T06:24:31.545Z,4.57
2023-03-18T06:27:20.746Z,3.80
2023-03-18T06:30:15.296Z,4.50
2023-03-18T06:33:03.436Z,3.77
2023-03-18T06:35:51.360Z,3.77
2023-03-18T06:38:39.064Z,4.07
2023-03-18T06:41:28.065Z,4.80
2023-03-18T06:44:36.749Z,4.57
2023-03-18T06:47:33.041Z,3.97
2023-03-18T06:50:20.759Z,3.90
2023-03-18T06:53:09.200Z,4.17
2023-03-18T06:55:57.147Z,3.97
2023-03-18T06:58:48.736Z,3.80
2023-03-18T07:01:39.269Z,3.80
2023-03-18T07:04:27.116Z,4.03
2023-03-18T07:07:15.038Z,3.90
2023-03-18T07:10:02.638Z,4.00
2023-03-18T07:12:50.727Z,3.93
2023-03-18T07:15:39.159Z,3.80
2023-03-18T07:18:28.360Z,3.63
2023-03-18T07:21:16.780Z,3.80
2023-03-18T07:24:05.550Z,3.73
2023-03-18T07:26:53.443Z,3.80
2023-03-18T07:29:41.020Z,3.97
2023-03-18T07:32:30.085Z,3.87
2023-03-18T07:35:18.885Z,4.30
2023-03-18T07:38:06.226Z,3.90
2023-03-18T07:40:53.604Z,3.87
2023-03-18T07:43:41.139Z,4.07
2023-03-18T07:46:28.777Z,4.17
2023-03-18T07:49:16.212Z,4.00
2023-03-18T07:52:05.254Z,3.90
2023-03-18T07:54:52.589Z,4.00
2023-03-18T07:57:40.693Z,3.87
2023-03-18T08:00:29.351Z,3.47
2023-03-18T08:03:16.744Z,4.17
2023-03-18T08:06:03.862Z,4.13
2023-03-18T08:08:52.823Z,3.97
2023-03-18T08:11:40.289Z,4.30
2023-03-18T08:14:27.475Z,4.10
2023-03-18T08:17:15.242Z,3.65
2023-03-18T08:20:03.149Z,3.75
2023-03-18T08:22:50.800Z,3.67
2023-03-18T08:25:39.560Z,3.65
2023-03-18T08:28:27.316Z,3.67
2023-03-18T08:31:17.984Z,4.15
2023-03-18T08:34:05.499Z,3.83
2023-03-18T08:36:53.169Z,4.30
2023-03-18T08:39:41.269Z,3.92
2023-03-18T08:42:30.495Z,4.35
2023-03-18T08:45:17.999Z,3.70
2023-03-18T08:48:05.502Z,3.75
2023-03-18T08:50:52.719Z,4.13
2023-03-18T08:53:39.926Z,3.95
2023-03-18T08:56:27.298Z,3.78
2023-03-18T08:59:16.115Z,3.58
2023-03-18T09:02:03.416Z,3.80
2023-03-18T09:04:51.240Z,3.35
2023-03-18T09:07:38.333Z,3.75
2023-03-18T09:10:26.190Z,4.15
2023-03-18T09:13:13.878Z,3.70
2023-03-18T09:16:02.549Z,3.40
2023-03-18T09:18:49.816Z,3.70
2023-03-18T09:21:37.568Z,3.92
2023-03-18T09:24:24.835Z,3.80
2023-03-18T09:27:12.603Z,4.20
2023-03-18T09:29:59.768Z,3.97
2023-03-18T09:32:48.781Z,4.00
2023-03-18T09:35:36.641Z,3.70
2023-03-18T09:38:24.587Z,3.90
2023-03-18T09:41:26.730Z,3.53
2023-03-18T09:44:22.646Z,3.33
2023-03-18T09:47:26.557Z,4.28
2023-03-18T09:50:29.137Z,3.90
2023-03-18T09:53:22.914Z,3.53
2023-03-18T09:56:15.322Z,3.50
2023-03-18T09:59:04.987Z,3.90
2023-03-18T10:01:55.693Z,3.75
2023-03-18T10:04:48.760Z,3.15
2023-03-18T10:07:42.787Z,3.70
2023-03-18T10:10:35.377Z,3.45
2023-03-18T10:13:30.928Z,3.65
2023-03-18T10:16:24.017Z,4.05
2023-03-18T10:19:11.590Z,3.70
2023-03-18T10:22:13.570Z,4.00
2023-03-18T10:25:11.144Z,3.70
2023-03-18T10:28:28.827Z,3.45
2023-03-18T10:31:29.669Z,3.72
2023-03-18T10:34:21.856Z,3.15
2023-03-18T10:37:19.939Z,3.63
2023-03-18T10:40:16.526Z,3.53
2023-03-18T10:43:04.725Z,4.00
2023-03-18T10:46:00.736Z,3.38
2023-03-18T10:48:51.186Z,3.65
2023-03-18T10:51:46.405Z,3.75
2023-03-18T10:54:38.463Z,3.58
2023-03-18T10:57:27.683Z,3.50
2023-03-18T11:00:27.908Z,3.47
2023-03-18T11:03:23.241Z,3.45
2023-03-18T11:06:20.051Z,3.47
2023-03-18T11:09:09.984Z,3.75
2023-03-18T11:11:58.789Z,3.35
2023-03-18T11:14:50.794Z,3.45
2023-03-18T11:17:40.599Z,3.13
2023-03-18T11:20:42.909Z,3.70
2023-03-18T11:23:46.206Z,3.70
2023-03-18T11:26:44.117Z,3.30
2023-03-18T11:29:33.627Z,3.58
2023-03-18T11:32:27.776Z,3.67
2023-03-18T11:35:21.599Z,3.20
2023-03-18T11:38:16.441Z,3.25
2023-03-18T11:41:08.588Z,3.83
2023-03-18T11:43:59.173Z,3.35
2023-03-18T11:46:51.229Z,3.30
2023-03-18T11:49:40.184Z,3.28
2023-03-18T11:52:36.318Z,3.78
2023-03-18T11:55:32.624Z,3.10
2023-03-18T11:58:52.547Z,3.25
2023-03-18T12:01:48.793Z,3.22
2023-03-18T12:05:06.002Z,3.20
2023-03-18T12:08:04.122Z,3.85
2023-03-18T12:10:58.824Z,3.45
2023-03-18T12:13:57.956Z,3.17
2023-03-18T12:16:56.720Z,3.25
2023-03-18T12:20:00.642Z,3.55
2023-03-18T12:23:04.426Z,2.95
2023-03-18T12:26:06.329Z,3.30
2023-03-18T12:29:28.157Z,3.17
2023-03-18T12:32:26.002Z,2.90
2023-03-18T12:35:36.919Z,2.88
2023-03-18T12:38:43.174Z,2.80
2023-03-18T12:41:41.117Z,3.25
2023-03-18T12:44:36.532Z,2.90
2023-03-18T12:47:29.513Z,3.20
2023-03-18T12:50:21.826Z,3.55
2023-03-18T12:53:16.749Z,3.90
2023-03-18T12:56:08.797Z,3.13
2023-03-18T12:59:05.497Z,3.15
2023-03-18T13:02:07.283Z,3.22
2023-03-18T13:04:58.782Z,3.30
2023-03-18T13:07:53.185Z,3.20
2023-03-18T13:10:45.395Z,3.28
2023-03-18T13:13:36.794Z,3.38
2023-03-18T13:16:25.366Z,3.42
2023-03-18T13:19:12.775Z,3.10
2023-03-18T13:22:16.386Z,2.90
2023-03-18T13:25:19.369Z,3.55
2023-03-18T13:28:27.957Z,3.00
2023-03-18T13:31:29.128Z,3.10
2023-03-18T13:34:54.697Z,3.38
2023-03-18T13:41:08.608Z,3.35
2023-03-18T13:43:58.491Z,3.10
2023-03-18T13:46:55.841Z,3.53
2023-03-18T13:49:44.525Z,3.33
2023-03-18T13:52:41.113Z,3.50
2023-03-18T13:55:32.979Z,3.33
2023-03-18T13:58:25.891Z,3.30
2023-03-18T14:01:32.065Z,3.47
2023-03-18T14:04:31.486Z,2.80
2023-03-18T14:07:20.681Z,2.80
2023-03-18T14:10:19.793Z,3.20
2023-03-18T14:13:36.072Z,2.90
2023-03-18T14:16:25.715Z,3.00
2023-03-18T14:19:21.346Z,3.00
2023-03-18T14:22:17.309Z,2.60
2023-03-18T14:25:40.837Z,3.25
2023-03-18T14:28:31.176Z,2.67
2023-03-18T14:31:51.884Z,2.67
2023-03-18T14:34:56.339Z,2.33
2023-03-18T14:38:00.807Z,2.30
2023-03-18T14:40:51.498Z,3.20
2023-03-18T14:43:46.775Z,2.40
2023-03-18T14:46:37.159Z,2.53
2023-03-18T14:49:35.434Z,2.30
2023-03-18T14:52:29.704Z,2.50
2023-03-18T14:55:21.421Z,2.47
2023-03-18T14:58:19.063Z,2.58
2023-03-18T15:01:10.906Z,2.42
2023-03-18T15:03:58.489Z,2.05
2023-03-18T15:06:46.359Z,2.40
2023-03-18T15:09:36.174Z,2.20
2023-03-18T15:12:28.250Z,2.08
2023-03-18T15:15:17.732Z,2.17
2023-03-18T15:18:20.650Z,2.20
2023-03-18T15:21:10.978Z,2.20
2023-03-18T15:24:01.134Z,1.88
2023-03-18T15:26:57.823Z,1.85
2023-03-18T15:29:49.516Z,2.00
2023-03-18T15:32:47.331Z,1.80
2023-03-18T15:35:39.505Z,1.70
2023-03-18T15:38:29.147Z,1.92
2023-03-18T15:41:17.865Z,1.80
2023-03-18T15:44:16.722Z,2.00
2023-03-18T15:47:14.663Z,2.03
2023-03-18T15:50:15.313Z,1.73
2023-03-18T15:53:18.680Z,1.75
2023-03-18T15:56:16.287Z,1.70
2023-03-18T15:59:12.081Z,1.98
2023-03-18T16:02:04.221Z,1.80
2023-03-18T16:04:51.899Z,1.90
2023-03-18T16:07:39.788Z,2.10
2023-03-18T16:10:28.917Z,2.00
2023-03-18T16:13:23.312Z,2.00
2023-03-18T16:16:18.459Z,2.15
2023-03-18T16:19:15.656Z,2.15
2023-03-18T16:22:04.137Z,2.80
2023-03-18T16:24:51.857Z,2.33
2023-03-18T16:27:41.622Z,2.47
2023-03-18T16:30:31.011Z,2.97
2023-03-18T16:33:18.975Z,2.67
2023-03-18T16:36:07.577Z,3.00
2023-03-18T16:38:55.184Z,2.70
2023-03-18T16:41:44.051Z,2.58
2023-03-18T16:44:34.339Z,2.47
2023-03-18T16:47:23.635Z,2.42
2023-03-18T16:50:17.614Z,2.75
2023-03-18T16:53:13.624Z,3.03
2023-03-18T16:56:03.001Z,3.50
2023-03-18T16:58:50.534Z,3.70
2023-03-18T17:01:39.957Z,3.90
2023-03-18T17:04:30.598Z,3.20
2023-03-18T17:07:18.544Z,3.80
2023-03-18T17:10:06.424Z,3.03
2023-03-18T17:12:57.418Z,3.97
2023-03-18T17:15:45.637Z,3.30
2023-03-18T17:18:34.726Z,3.50
2023-03-18T17:21:22.256Z,3.13
2023-03-18T17:24:09.495Z,3.33
2023-03-18T17:26:56.701Z,3.40
2023-03-18T17:29:44.162Z,4.03
2023-03-18T17:32:31.587Z,4.05
2023-03-18T17:35:22.148Z,3.60
2023-03-18T17:38:10.889Z,3.47
2023-03-18T17:40:59.603Z,4.28
2023-03-18T17:43:47.327Z,3.13
2023-03-18T17:46:34.683Z,3.40
2023-03-18T17:49:24.716Z,3.33
2023-03-18T17:52:19.238Z,3.13
2023-03-18T17:55:17.219Z,3.22
2023-03-18T17:58:12.056Z,3.28
2023-03-18T18:01:05.528Z,3.58
2023-03-18T18:03:53.271Z,3.20
2023-03-18T18:06:40.851Z,3.58
2023-03-18T18:09:29.572Z,3.90
2023-03-18T18:12:21.891Z,4.45
2023-03-18T18:15:19.365Z,4.05
2023-03-18T18:18:13.532Z,3.78
2023-03-18T18:21:03.025Z,3.92
2023-03-18T18:23:50.382Z,4.38
2023-03-18T18:26:39.157Z,3.90
2023-03-18T18:29:28.156Z,4.90
2023-03-18T18:32:16.270Z,4.85
2023-03-18T18:35:03.532Z,4.90
2023-03-18T18:37:51.100Z,4.50
2023-03-18T18:40:38.261Z,4.90
2023-03-18T18:43:27.704Z,5.32
2023-03-18T18:46:15.593Z,5.72
2023-03-18T18:49:02.665Z,5.00
2023-03-18T18:51:50.525Z,5.60
2023-03-18T18:54:38.104Z,5.90
2023-03-18T18:57:28.299Z,5.70
2023-03-18T19:00:21.978Z,5.55
2023-03-18T19:03:14.293Z,5.63
2023-03-18T19:06:04.739Z,5.32
2023-03-18T19:08:52.438Z,5.28
2023-03-18T19:11:39.642Z,5.78
2023-03-18T19:14:28.408Z,6.07
2023-03-18T19:17:19.566Z,5.80
2023-03-18T19:20:25.005Z,5.72
2023-03-18T19:23:16.438Z,6.38
2023-03-18T19:26:05.552Z,6.57
2023-03-18T19:28:58.997Z,6.20
2023-03-18T19:31:46.712Z,8.48
2023-03-18T19:34:35.351Z,10.43
2023-03-18T19:37:27.196Z,10.27
2023-03-18T19:40:22.929Z,10.32
2023-03-18T19:43:17.524Z,7.93
2023-03-18T19:46:05.038Z,7.13
2023-03-18T19:48:52.707Z,5.78
2023-03-18T19:51:41.499Z,6.07
2023-03-18T19:54:32.366Z,5.20
2023-03-18T19:57:23.332Z,4.88
2023-03-18T20:00:21.807Z,5.78
2023-03-18T20:03:15.750Z,5.15
2023-03-18T20:06:03.270Z,8.68
2023-03-18T20:08:52.432Z,6.45
2023-03-18T20:11:40.009Z,5.40
2023-03-18T20:14:30.209Z,8.32
2023-03-18T20:17:29.389Z,7.82
2023-03-18T20:20:18.259Z,6.30
2023-03-18T20:23:07.336Z,5.47
2023-03-18T20:25:56.328Z,5.00
2023-03-18T20:28:45.532Z,4.85
2023-03-18T20:31:33.379Z,4.68
2023-03-18T20:34:20.920Z,5.43
2023-03-18T20:37:18.323Z,6.43
2023-03-18T20:40:07.383Z,5.43
2023-03-18T20:42:56.420Z,4.47
2023-03-18T20:45:43.731Z,5.05
2023-03-18T20:48:31.215Z,4.80
2023-03-18T20:51:22.211Z,5.38
2023-03-18T20:54:18.692Z,5.53
2023-03-18T20:57:06.020Z,6.30
2023-03-18T20:59:54.843Z,5.88
2023-03-18T21:02:42.914Z,5.70
2023-03-18T21:05:30.515Z,6.18
2023-03-18T21:08:18.501Z,6.57
2023-03-18T21:11:06.330Z,6.18
2023-03-18T21:13:54.193Z,6.20
2023-03-18T21:16:42.989Z,5.85
2023-03-18T21:19:30.085Z,5.38
2023-03-18T21:22:21.381Z,5.93
2023-03-18T21:25:12.459Z,6.00
2023-03-18T21:27:59.696Z,7.03
2023-03-18T21:30:49.472Z,6.40
2023-03-18T21:33:38.116Z,7.05
2023-03-18T21:36:25.973Z,6.30
2023-03-18T21:39:14.111Z,6.40
2023-03-18T21:42:01.441Z,7.03
2023-03-18T21:44:48.845Z,6.95
2023-03-18T21:47:36.746Z,6.20
2023-03-18T21:50:27.210Z,5.88
2023-03-18T21:53:16.623Z,7.10
2023-03-18T21:56:03.842Z,6.90
2023-03-18T21:58:51.261Z,7.15
2023-03-18T22:01:38.910Z,7.07
2023-03-18T22:04:26.352Z,6.95
2023-03-18T22:07:15.503Z,7.60
2023-03-18T22:10:02.973Z,7.63
2023-03-18T22:12:50.565Z,6.70
2023-03-18T22:15:39.987Z,7.72
2023-03-18T22:18:27.290Z,8.55
2023-03-18T22:21:19.158Z,7.83
2023-03-18T22:24:14.709Z,7.53
2023-03-18T22:27:02.072Z,7.73
2023-03-18T22:29:50.818Z,8.60
2023-03-18T22:32:41.456Z,7.60
2023-03-18T22:35:30.744Z,8.03
2023-03-18T22:38:19.246Z,9.07
2023-03-18T22:41:15.803Z,8.73
2023-03-18T22:44:03.626Z,7.27
2023-03-18T22:46:50.916Z,7.27
2023-03-18T22:49:38.204Z,7.47
2023-03-18T22:52:28.993Z,8.60
2023-03-18T22:55:20.839Z,7.20
2023-03-18T22:58:19.283Z,7.37
2023-03-18T23:01:07.450Z,7.60
2023-03-18T23:03:55.683Z,7.47
2023-03-18T23:06:43.048Z,8.07
2023-03-18T23:09:31.648Z,8.67
2023-03-18T23:12:19.972Z,8.70
2023-03-18T23:15:12.653Z,9.37
2023-03-18T23:17:59.964Z,8.17
2023-03-18T23:20:50.411Z,8.33
2023-03-18T23:23:37.853Z,8.97
2023-03-18T23:26:25.376Z,8.97
2023-03-18T23:29:12.583Z,8.67
2023-03-18T23:32:01.541Z,9.83
2023-03-18T23:34:49.445Z,8.40
2023-03-18T23:37:37.204Z,8.33
2023-03-18T23:40:24.319Z,8.47
2023-03-18T23:43:11.809Z,7.90
2023-03-18T23:45:59.255Z,8.10
2023-03-18T23:48:47.978Z,7.03
2023-03-18T23:51:35.137Z,8.53
2023-03-18T23:54:22.495Z,8.57
2023-03-18T23:57:11.664Z,8.60
2023-03-18T23:59:59.143Z,8.17
